Time;durP1;ratioP1;P1;durP2;ratioP2;P2;SDS_P1;SDS_P2;PMS_P1;PMS_P2;Temp;Humidity;BMP_temperature;BMP_pressure;BME280_temperature;BME280_humidity;BME280_pressure;Samples;Min_cycle;Max_cycle;Signal;HPM_P1;HPM_P2
2023/07/01 00:01:56;;;;;;;29.85;20.05;;;;;;;;;;5014709;28;20128;-77
2023/07/01 00:04:23;;;;;;;28.48;20.27;;;;;;;;;;5027822;28;20053;-76
2023/07/01 00:06:51;;;;;;;28.73;20.63;;;;;;;;;;5034360;28;20408;-76
2023/07/01 00:09:17;;;;;;;30.63;20.48;;;;;;;;;;5035011;28;20049;-79
2023/07/01 00:11:44;;;;;;;29.65;19.77;;;;;;;;;;5033996;28;20125;-76
2023/07/01 00:14:11;;;;;;;29.75;20.45;;;;;;;;;;5034088;28;20057;-76
2023/07/01 00:16:39;;;;;;;30.42;20.95;;;;;;;;;;5033561;28;20145;-76
2023/07/01 00:19:06;;;;;;;29.55;20.38;;;;;;;;;;5014514;28;20076;-78
2023/07/01 00:21:33;;;;;;;29.45;20.70;;;;;;;;;;5015002;28;20157;-77
2023/07/01 00:24:01;;;;;;;32.35;22.08;;;;;;;;;;5015669;28;20064;-79
2023/07/01 00:26:27;;;;;;;29.25;19.50;;;;;;;;;;5015517;28;20393;-77
2023/07/01 00:28:54;;;;;;;26.55;19.70;;;;;;;;;;5032331;28;20488;-78
2023/07/01 00:31:21;;;;;;;32.58;20.55;;;;;;;;;;5034931;28;20041;-78
2023/07/01 00:33:48;;;;;;;29.58;20.25;;;;;;;;;;5037017;28;20144;-77
2023/07/01 00:36:14;;;;;;;30.48;20.77;;;;;;;;;;5053987;28;20086;-79
2023/07/01 00:38:41;;;;;;;32.13;20.60;;;;;;;;;;5054426;28;20041;-78
2023/07/01 00:41:09;;;;;;;28.23;19.73;;;;;;;;;;5054696;28;20072;-77
2023/07/01 00:43:35;;;;;;;26.60;18.25;;;;;;;;;;5054588;28;20045;-78
2023/07/01 00:46:02;;;;;;;27.67;19.38;;;;;;;;;;5055100;28;20563;-77
2023/07/01 00:48:30;;;;;;;27.23;17.60;;;;;;;;;;5054998;28;20052;-78
2023/07/01 00:50:56;;;;;;;27.60;19.75;;;;;;;;;;5054215;28;20083;-77
2023/07/01 00:53:23;;;;;;;27.00;19.45;;;;;;;;;;5036472;28;20105;-78
2023/07/01 00:55:50;;;;;;;31.15;20.38;;;;;;;;;;5033982;28;20080;-77
2023/07/01 00:58:18;;;;;;;27.95;19.20;;;;;;;;;;5033681;28;20101;-78
2023/07/01 01:00:45;;;;;;;27.35;19.23;;;;;;;;;;5033438;28;20052;-79
2023/07/01 01:03:22;;;;;;;29.73;20.10;;;;;;;;;;5034213;28;20393;-79
2023/07/01 01:05:58;;;;;;;29.83;19.75;;;;;;;;;;5014277;28;20386;-78
2023/07/01 01:08:30;;;;;;;29.15;20.10;;;;;;;;;;5013949;28;20420;-79
2023/07/01 01:11:05;;;;;;;29.52;20.15;;;;;;;;;;5013928;28;20056;-77
2023/07/01 01:13:34;;;;;;;30.65;20.38;;;;;;;;;;5031201;28;20129;-76
2023/07/01 01:16:02;;;;;;;30.45;20.58;;;;;;;;;;5033140;28;20063;-78
2023/07/01 01:18:32;;;;;;;29.40;20.08;;;;;;;;;;5036391;28;20119;-76
2023/07/01 01:20:59;;;;;;;29.23;19.20;;;;;;;;;;5043724;28;20045;-78
2023/07/01 01:23:28;;;;;;;30.08;20.60;;;;;;;;;;5043652;28;20056;-77
2023/07/01 01:26:06;;;;;;;33.23;21.40;;;;;;;;;;5044138;28;20069;-78
2023/07/01 01:28:36;;;;;;;30.30;21.42;;;;;;;;;;5034269;28;20162;-78
2023/07/01 01:31:03;;;;;;;33.27;21.73;;;;;;;;;;5033110;28;20056;-77
2023/07/01 01:33:29;;;;;;;31.50;20.92;;;;;;;;;;5033651;28;20482;-80
2023/07/01 01:36:02;;;;;;;32.33;21.85;;;;;;;;;;5032181;28;20045;-76
2023/07/01 01:38:32;;;;;;;31.30;20.63;;;;;;;;;;5032583;28;20152;-78
2023/07/01 01:41:05;;;;;;;28.38;19.48;;;;;;;;;;5032695;28;20050;-77
2023/07/01 01:43:39;;;;;;;32.17;21.17;;;;;;;;;;5031908;28;20408;-78
2023/07/01 01:46:08;;;;;;;32.75;22.77;;;;;;;;;;5032364;28;20128;-79
2023/07/01 01:48:37;;;;;;;31.73;20.73;;;;;;;;;;5031922;28;20151;-79
2023/07/01 01:51:05;;;;;;;30.77;22.42;;;;;;;;;;5040002;28;20484;-79
2023/07/01 01:53:32;;;;;;;32.97;21.73;;;;;;;;;;5052312;28;20124;-79
2023/07/01 01:55:59;;;;;;;31.85;21.33;;;;;;;;;;5032107;28;20563;-77
2023/07/01 01:58:27;;;;;;;34.53;23.17;;;;;;;;;;5032456;28;20042;-78
2023/07/01 02:00:55;;;;;;;30.60;20.52;;;;;;;;;;5031933;28;20053;-78
2023/07/01 02:03:21;;;;;;;31.00;20.70;;;;;;;;;;5033040;28;20037;-78
2023/07/01 02:05:48;;;;;;;32.10;21.63;;;;;;;;;;5031893;28;20129;-78
2023/07/01 02:08:15;;;;;;;31.75;21.27;;;;;;;;;;5032241;28;20140;-78
2023/07/01 02:10:41;;;;;;;33.40;21.25;;;;;;;;;;5032321;28;20132;-78
2023/07/01 02:13:08;;;;;;;29.70;20.13;;;;;;;;;;5035705;28;20048;-79
2023/07/01 02:15:34;;;;;;;25.20;16.95;;;;;;;;;;5035349;28;20050;-78
2023/07/01 02:18:03;;;;;;;26.70;17.50;;;;;;;;;;5036029;28;20041;-76
2023/07/01 02:20:30;;;;;;;25.50;17.65;;;;;;;;;;5035732;28;20116;-76
2023/07/01 02:22:57;;;;;;;22.25;15.77;;;;;;;;;;5035991;28;20055;-77
2023/07/01 02:25:23;;;;;;;21.83;14.65;;;;;;;;;;5036487;28;20042;-79
2023/07/01 02:27:50;;;;;;;21.40;14.27;;;;;;;;;;5036430;28;20045;-77
2023/07/01 02:30:17;;;;;;;19.25;12.98;;;;;;;;;;5036776;28;20045;-79
2023/07/01 02:32:43;;;;;;;22.02;14.00;;;;;;;;;;5032705;28;20049;-78
2023/07/01 02:35:12;;;;;;;18.15;13.43;;;;;;;;;;5037714;28;20444;-79
2023/07/01 02:37:38;;;;;;;21.65;13.10;;;;;;;;;;5038423;28;20496;-78
2023/07/01 02:40:06;;;;;;;18.65;12.65;;;;;;;;;;5042626;28;20049;-79
2023/07/01 02:42:33;;;;;;;18.63;12.23;;;;;;;;;;5039594;28;20056;-79
2023/07/01 02:45:00;;;;;;;19.15;12.48;;;;;;;;;;5017773;28;20078;-79
2023/07/01 02:47:26;;;;;;;17.45;11.38;;;;;;;;;;5017783;28;20056;-79
2023/07/01 02:49:53;;;;;;;18.13;12.18;;;;;;;;;;5017452;28;20072;-80
2023/07/01 02:52:21;;;;;;;18.10;12.02;;;;;;;;;;5037248;28;20136;-80
2023/07/01 02:54:48;;;;;;;16.75;12.00;;;;;;;;;;5037317;28;20049;-79
2023/07/01 02:57:14;;;;;;;18.90;12.43;;;;;;;;;;5037472;28;20049;-80
2023/07/01 02:59:41;;;;;;;18.80;11.70;;;;;;;;;;5038644;28;20132;-79
2023/07/01 03:02:08;;;;;;;17.33;10.60;;;;;;;;;;5041686;28;20563;-79
2023/07/01 03:04:35;;;;;;;17.35;11.65;;;;;;;;;;5041318;28;20397;-79
2023/07/01 03:07:04;;;;;;;15.88;10.30;;;;;;;;;;5042532;28;20080;-79
2023/07/01 03:09:31;;;;;;;13.25;9.73;;;;;;;;;;5042214;28;20053;-79
2023/07/01 03:11:58;;;;;;;14.63;9.93;;;;;;;;;;5029669;28;20052;-80
2023/07/01 03:14:25;;;;;;;15.10;9.88;;;;;;;;;;5033339;28;20076;-80
2023/07/01 03:16:53;;;;;;;14.93;9.35;;;;;;;;;;5037506;28;20057;-79
2023/07/01 03:19:20;;;;;;;13.10;8.85;;;;;;;;;;5037633;28;20041;-80
2023/07/01 03:21:47;;;;;;;14.85;9.70;;;;;;;;;;5041686;28;20042;-79
2023/07/01 03:24:13;;;;;;;13.00;8.73;;;;;;;;;;5024951;28;20042;-79
2023/07/01 03:26:42;;;;;;;13.70;8.50;;;;;;;;;;5033962;28;20042;-80
2023/07/01 03:29:09;;;;;;;13.05;8.35;;;;;;;;;;5027459;28;20075;-79
2023/07/01 03:31:35;;;;;;;12.20;7.97;;;;;;;;;;5039257;28;20116;-79
2023/07/01 03:34:02;;;;;;;11.48;7.18;;;;;;;;;;5035811;28;20088;-79
2023/07/01 03:36:29;;;;;;;13.48;7.97;;;;;;;;;;5036301;28;20045;-78
2023/07/01 03:38:57;;;;;;;9.35;7.22;;;;;;;;;;5036579;28;20053;-79
2023/07/01 03:41:23;;;;;;;10.05;7.22;;;;;;;;;;5043111;28;20048;-79
2023/07/01 03:43:51;;;;;;;11.98;7.32;;;;;;;;;;5034621;28;20044;-80
2023/07/01 03:46:18;;;;;;;12.30;8.30;;;;;;;;;;5036985;28;20077;-78
2023/07/01 03:48:45;;;;;;;11.27;7.57;;;;;;;;;;5036452;28;20045;-78
2023/07/01 03:51:11;;;;;;;11.43;7.60;;;;;;;;;;5036462;28;20054;-79
2023/07/01 03:53:38;;;;;;;12.82;8.07;;;;;;;;;;5035806;28;20084;-79
2023/07/01 03:56:05;;;;;;;13.40;7.65;;;;;;;;;;5035843;28;20503;-78
2023/07/01 03:58:31;;;;;;;13.02;8.52;;;;;;;;;;5035961;28;20112;-78
2023/07/01 04:00:59;;;;;;;12.80;8.55;;;;;;;;;;5036339;28;20073;-79
2023/07/01 04:03:26;;;;;;;11.95;7.63;;;;;;;;;;5031060;28;20497;-79
2023/07/01 04:05:53;;;;;;;12.88;8.13;;;;;;;;;;5035295;28;20073;-79
2023/07/01 04:08:20;;;;;;;10.32;7.13;;;;;;;;;;5035726;28;20081;-78
2023/07/01 04:10:47;;;;;;;13.52;7.28;;;;;;;;;;5035985;28;20085;-78
2023/07/01 04:13:13;;;;;;;10.75;6.82;;;;;;;;;;5035444;28;20076;-78
2023/07/01 04:15:40;;;;;;;10.95;7.18;;;;;;;;;;5034893;28;20502;-78
2023/07/01 04:18:08;;;;;;;10.55;7.28;;;;;;;;;;5035866;28;20072;-78
2023/07/01 04:20:35;;;;;;;9.60;6.65;;;;;;;;;;5040390;28;20580;-79
2023/07/01 04:23:01;;;;;;;9.90;6.75;;;;;;;;;;5056232;28;20076;-79
2023/07/01 04:25:28;;;;;;;9.23;6.30;;;;;;;;;;5038285;28;20106;-79
2023/07/01 04:27:55;;;;;;;10.68;6.57;;;;;;;;;;5051448;28;20041;-79
2023/07/01 04:30:21;;;;;;;8.77;6.10;;;;;;;;;;5049350;28;20053;-79
2023/07/01 04:32:48;;;;;;;9.50;6.47;;;;;;;;;;5038837;28;20049;-78
2023/07/01 04:35:16;;;;;;;10.32;6.10;;;;;;;;;;5048326;28;20068;-78
2023/07/01 04:37:43;;;;;;;9.02;6.25;;;;;;;;;;5049233;28;20045;-78
2023/07/01 04:40:12;;;;;;;8.05;5.85;;;;;;;;;;5044772;28;20076;-78
2023/07/01 04:42:45;;;;;;;9.02;5.88;;;;;;;;;;5035506;28;20092;-78
2023/07/01 04:45:13;;;;;;;9.73;5.97;;;;;;;;;;5034980;28;20049;-79
2023/07/01 04:47:39;;;;;;;8.52;5.82;;;;;;;;;;5035958;28;20043;-79
2023/07/01 04:50:08;;;;;;;8.80;5.70;;;;;;;;;;5035117;28;20111;-78
2023/07/01 04:52:36;;;;;;;7.97;5.40;;;;;;;;;;5036586;28;20054;-79
2023/07/01 04:55:03;;;;;;;8.85;5.53;;;;;;;;;;5049214;28;20055;-79
2023/07/01 04:57:30;;;;;;;8.98;5.97;;;;;;;;;;5035738;28;20128;-78
2023/07/01 04:59:56;;;;;;;8.75;5.88;;;;;;;;;;5035113;28;20445;-79
2023/07/01 05:02:23;;;;;;;8.93;5.78;;;;;;;;;;5035078;28;20080;-78
2023/07/01 05:04:50;;;;;;;7.47;5.00;;;;;;;;;;5031183;28;20049;-79
2023/07/01 05:07:16;;;;;;;7.90;5.35;;;;;;;;;;5030162;28;20103;-79
2023/07/01 05:09:44;;;;;;;7.90;5.00;;;;;;;;;;5035275;28;20509;-79
2023/07/01 05:12:13;;;;;;;8.65;5.78;;;;;;;;;;5036574;28;20113;-79
2023/07/01 05:14:39;;;;;;;8.65;5.70;;;;;;;;;;5039495;28;20500;-79
2023/07/01 05:17:06;;;;;;;8.85;5.70;;;;;;;;;;5039470;28;20045;-79
2023/07/01 05:19:33;;;;;;;7.95;5.32;;;;;;;;;;5037015;28;20049;-79
2023/07/01 05:22:00;;;;;;;7.63;5.32;;;;;;;;;;5036653;28;20069;-79
2023/07/01 05:24:26;;;;;;;8.18;5.38;;;;;;;;;;5036116;28;20116;-80
2023/07/01 05:26:54;;;;;;;8.23;6.18;;;;;;;;;;5035812;28;20080;-79
2023/07/01 05:29:21;;;;;;;8.77;5.85;;;;;;;;;;5035502;28;20056;-78
2023/07/01 05:31:49;;;;;;;8.25;5.80;;;;;;;;;;5033995;28;20208;-79
2023/07/01 05:34:16;;;;;;;9.70;6.63;;;;;;;;;;5032542;28;20046;-78
2023/07/01 05:36:42;;;;;;;8.85;5.70;;;;;;;;;;5035991;28;20045;-78
2023/07/01 05:39:09;;;;;;;8.73;5.88;;;;;;;;;;5035898;28;20042;-78
2023/07/01 05:41:36;;;;;;;10.43;6.60;;;;;;;;;;5035815;28;20140;-78
2023/07/01 05:44:04;;;;;;;9.10;6.75;;;;;;;;;;5034736;28;20104;-79
2023/07/01 05:46:31;;;;;;;9.60;6.32;;;;;;;;;;5036200;28;20053;-78
2023/07/01 05:49:01;;;;;;;7.78;5.60;;;;;;;;;;5027860;28;20037;-78
2023/07/01 05:51:27;;;;;;;9.50;6.47;;;;;;;;;;5043249;28;20407;-78
2023/07/01 05:53:54;;;;;;;9.50;5.80;;;;;;;;;;5042666;28;20045;-79
2023/07/01 05:56:21;;;;;;;8.90;5.80;;;;;;;;;;5041731;28;20079;-78
2023/07/01 05:58:47;;;;;;;8.68;5.75;;;;;;;;;;5040111;28;20041;-79
2023/07/01 06:01:16;;;;;;;8.48;5.70;;;;;;;;;;5039757;28;20270;-79
2023/07/01 06:03:42;;;;;;;8.15;5.45;;;;;;;;;;5037349;28;20112;-79
2023/07/01 06:06:09;;;;;;;8.27;5.25;;;;;;;;;;5039931;28;20046;-79
2023/07/01 06:08:38;;;;;;;8.32;5.40;;;;;;;;;;5040093;28;20080;-78
2023/07/01 06:11:04;;;;;;;7.32;5.38;;;;;;;;;;5040205;28;20045;-79
2023/07/01 06:13:31;;;;;;;9.10;5.63;;;;;;;;;;5038959;28;20136;-79
2023/07/01 06:15:58;;;;;;;8.55;5.40;;;;;;;;;;5039266;28;20096;-79
2023/07/01 06:18:26;;;;;;;8.25;5.13;;;;;;;;;;5039520;28;20046;-79
2023/07/01 06:20:53;;;;;;;8.13;5.88;;;;;;;;;;5039241;28;20123;-79
2023/07/01 06:23:19;;;;;;;8.65;5.78;;;;;;;;;;5039440;28;20045;-79
2023/07/01 06:25:46;;;;;;;7.43;5.35;;;;;;;;;;5033287;28;20077;-79
2023/07/01 06:28:13;;;;;;;8.30;5.63;;;;;;;;;;5029935;28;20120;-78
2023/07/01 06:30:40;;;;;;;6.90;5.25;;;;;;;;;;5036867;28;20053;-79
2023/07/01 06:33:07;;;;;;;8.60;5.85;;;;;;;;;;5041636;28;20061;-79
2023/07/01 06:35:35;;;;;;;6.45;4.30;;;;;;;;;;5035637;28;20042;-78
2023/07/01 06:38:02;;;;;;;9.55;5.55;;;;;;;;;;5039987;28;20140;-79
2023/07/01 06:40:29;;;;;;;7.00;4.53;;;;;;;;;;5043400;28;20109;-79
2023/07/01 06:42:55;;;;;;;7.75;4.97;;;;;;;;;;5040331;28;20087;-79
2023/07/01 06:45:22;;;;;;;7.72;6.10;;;;;;;;;;5037429;28;20049;-78
2023/07/01 06:47:49;;;;;;;8.73;4.80;;;;;;;;;;5036525;28;20124;-78
2023/07/01 06:50:15;;;;;;;7.70;5.13;;;;;;;;;;5035976;28;20049;-78
2023/07/01 06:52:43;;;;;;;6.50;4.32;;;;;;;;;;5037063;28;20133;-77
2023/07/01 06:55:13;;;;;;;6.95;4.88;;;;;;;;;;5036776;28;20806;-77
2023/07/01 06:57:40;;;;;;;6.33;4.40;;;;;;;;;;5036102;28;20053;-78
2023/07/01 07:00:09;;;;;;;6.55;4.55;;;;;;;;;;5039197;28;20045;-79
2023/07/01 07:02:36;;;;;;;7.85;4.90;;;;;;;;;;5045377;28;20049;-78
2023/07/01 07:05:03;;;;;;;6.25;4.80;;;;;;;;;;5034405;28;20045;-78
2023/07/01 07:07:30;;;;;;;6.90;4.80;;;;;;;;;;5029615;28;20056;-78
2023/07/01 07:09:58;;;;;;;6.32;4.45;;;;;;;;;;5043900;28;20124;-76
2023/07/01 07:12:25;;;;;;;7.28;4.60;;;;;;;;;;5035171;28;20132;-77
2023/07/01 07:14:52;;;;;;;6.38;4.53;;;;;;;;;;5038641;28;20058;-78
2023/07/01 07:17:18;;;;;;;7.32;4.97;;;;;;;;;;5030722;28;20468;-77
2023/07/01 07:19:45;;;;;;;6.25;4.32;;;;;;;;;;5035010;28;20041;-78
2023/07/01 07:22:12;;;;;;;6.47;4.18;;;;;;;;;;5035908;28;20081;-77
2023/07/01 07:24:39;;;;;;;7.13;4.30;;;;;;;;;;5043722;28;20526;-77
2023/07/01 07:27:07;;;;;;;9.00;5.47;;;;;;;;;;5045899;28;20056;-78
2023/07/01 07:29:34;;;;;;;6.60;4.72;;;;;;;;;;5034537;28;20060;-77
2023/07/01 07:32:02;;;;;;;6.50;4.78;;;;;;;;;;5035338;28;20559;-77
2023/07/01 07:34:29;;;;;;;7.13;4.32;;;;;;;;;;5034529;28;20038;-77
2023/07/01 07:36:56;;;;;;;5.80;4.15;;;;;;;;;;5040098;28;20333;-77
2023/07/01 07:39:22;;;;;;;7.70;4.57;;;;;;;;;;5038673;28;20045;-77
2023/07/01 07:41:49;;;;;;;6.57;4.20;;;;;;;;;;5039845;28;20068;-77
2023/07/01 07:44:18;;;;;;;5.50;4.07;;;;;;;;;;5045388;28;20054;-78
2023/07/01 07:46:44;;;;;;;6.15;3.97;;;;;;;;;;5044275;28;20041;-77
2023/07/01 07:49:11;;;;;;;7.43;5.00;;;;;;;;;;5055578;28;20044;-79
2023/07/01 07:51:38;;;;;;;6.68;3.95;;;;;;;;;;5045543;28;20497;-78
2023/07/01 07:54:05;;;;;;;6.82;4.63;;;;;;;;;;5039720;28;20065;-78
2023/07/01 07:56:32;;;;;;;7.07;4.45;;;;;;;;;;5038772;28;20037;-79
2023/07/01 07:58:58;;;;;;;7.38;5.18;;;;;;;;;;5034273;28;20049;-82
2023/07/01 08:01:26;;;;;;;6.15;4.15;;;;;;;;;;5040656;28;20132;-78
2023/07/01 08:03:53;;;;;;;7.55;4.43;;;;;;;;;;5036256;28;20045;-81
2023/07/01 08:06:20;;;;;;;6.78;4.78;;;;;;;;;;5049480;28;20045;-81
2023/07/01 08:08:46;;;;;;;6.78;4.45;;;;;;;;;;5043264;28;20101;-82
2023/07/01 08:11:13;;;;;;;9.18;5.25;;;;;;;;;;5038342;28;20111;-83
2023/07/01 08:13:39;;;;;;;38.88;21.75;;;;;;;;;;5036606;28;20061;-79
2023/07/01 08:16:06;;;;;;;17.98;10.15;;;;;;;;;;5032661;28;20041;-80
2023/07/01 08:18:35;;;;;;;14.60;8.25;;;;;;;;;;5031837;28;20127;-77
2023/07/01 08:21:01;;;;;;;6.80;4.57;;;;;;;;;;5027826;28;20050;-78
2023/07/01 08:23:28;;;;;;;6.15;4.18;;;;;;;;;;5028178;28;20123;-77
2023/07/01 08:25:55;;;;;;;6.35;4.40;;;;;;;;;;5027487;28;20059;-77
2023/07/01 08:28:21;;;;;;;5.05;3.47;;;;;;;;;;5031792;28;20081;-81
2023/07/01 08:30:48;;;;;;;5.75;3.88;;;;;;;;;;5075373;22;20047;-76
2023/07/01 08:33:15;;;;;;;5.97;3.90;;;;;;;;;;5018095;28;20050;-77
2023/07/01 08:35:43;;;;;;;5.68;3.90;;;;;;;;;;5005029;28;20073;-77
2023/07/01 08:38:09;;;;;;;6.93;4.68;;;;;;;;;;4996162;28;20467;-78
2023/07/01 08:40:36;;;;;;;5.10;3.58;;;;;;;;;;5002854;28;20069;-77
2023/07/01 08:43:05;;;;;;;5.55;3.72;;;;;;;;;;4994798;28;20420;-76
2023/07/01 08:45:32;;;;;;;6.30;4.10;;;;;;;;;;5013784;28;20057;-76
2023/07/01 08:48:01;;;;;;;5.80;3.75;;;;;;;;;;5014422;28;20141;-77
2023/07/01 08:50:35;;;;;;;5.40;3.50;;;;;;;;;;5014858;28;20104;-77
2023/07/01 08:53:07;;;;;;;4.68;3.17;;;;;;;;;;5014417;28;20046;-78
2023/07/01 08:55:34;;;;;;;5.43;3.42;;;;;;;;;;5013946;28;20125;-77
2023/07/01 08:58:01;;;;;;;4.68;3.30;;;;;;;;;;5013856;28;20042;-77
2023/07/01 09:00:30;;;;;;;5.30;3.13;;;;;;;;;;5014754;28;20046;-78
2023/07/01 09:02:57;;;;;;;5.03;3.45;;;;;;;;;;5014095;28;20052;-78
2023/07/01 09:05:24;;;;;;;5.32;3.42;;;;;;;;;;5012949;28;20101;-78
2023/07/01 09:07:50;;;;;;;4.88;3.35;;;;;;;;;;5016642;28;20476;-78
2023/07/01 09:10:19;;;;;;;4.88;3.20;;;;;;;;;;5016216;28;20408;-79
2023/07/01 09:12:46;;;;;;;5.95;3.80;;;;;;;;;;5014276;28;20187;-77
2023/07/01 09:15:13;;;;;;;4.75;3.13;;;;;;;;;;5014509;28;20132;-78
2023/07/01 09:17:42;;;;;;;4.40;3.10;;;;;;;;;;5017167;28;20124;-78
2023/07/01 09:20:11;;;;;;;6.22;3.47;;;;;;;;;;5015580;28;20137;-78
2023/07/01 09:22:39;;;;;;;5.30;3.67;;;;;;;;;;5022038;28;20100;-77
2023/07/01 09:25:07;;;;;;;5.95;3.40;;;;;;;;;;5021388;28;20548;-77
2023/07/01 09:27:42;;;;;;;5.85;3.20;;;;;;;;;;5020767;28;20052;-78
2023/07/01 09:30:25;;;;;;;5.72;3.50;;;;;;;;;;5022544;28;20050;-77
2023/07/01 09:32:53;;;;;;;4.70;3.15;;;;;;;;;;5021912;28;20058;-76
2023/07/01 09:35:19;;;;;;;4.75;3.25;;;;;;;;;;5020997;28;20046;-77
2023/07/01 09:37:46;;;;;;;6.05;3.35;;;;;;;;;;5019437;28;20050;-78
2023/07/01 09:40:20;;;;;;;5.88;4.15;;;;;;;;;;5019196;28;20121;-78
2023/07/01 09:42:56;;;;;;;5.20;3.65;;;;;;;;;;5019478;28;20045;-78
2023/07/01 09:45:23;;;;;;;5.97;3.40;;;;;;;;;;5020110;28;20084;-79
2023/07/01 09:47:52;;;;;;;5.57;3.22;;;;;;;;;;5018894;28;20046;-78
2023/07/01 09:50:23;;;;;;;4.90;2.95;;;;;;;;;;5019765;28;20144;-79
2023/07/01 09:52:52;;;;;;;4.50;2.97;;;;;;;;;;5021379;28;20110;-78
2023/07/01 09:55:19;;;;;;;4.13;2.78;;;;;;;;;;5020506;28;20077;-78
2023/07/01 09:57:46;;;;;;;4.20;2.63;;;;;;;;;;5020339;28;20081;-79
2023/07/01 10:00:16;;;;;;;5.47;3.33;;;;;;;;;;5022091;28;20057;-77
2023/07/01 10:02:44;;;;;;;4.90;2.83;;;;;;;;;;5031772;28;20057;-75
2023/07/01 10:05:13;;;;;;;5.05;3.08;;;;;;;;;;5039256;28;20060;-77
2023/07/01 10:07:40;;;;;;;5.38;3.50;;;;;;;;;;5038092;28;20041;-77
2023/07/01 10:10:12;;;;;;;5.88;3.80;;;;;;;;;;5040357;28;20053;-77
2023/07/01 10:12:40;;;;;;;5.38;3.55;;;;;;;;;;5024517;28;20061;-78
2023/07/01 10:15:09;;;;;;;4.85;3.70;;;;;;;;;;5020952;28;20077;-79
2023/07/01 10:17:47;;;;;;;5.75;3.92;;;;;;;;;;5019306;28;20077;-78
2023/07/01 10:20:35;;;;;;;5.30;3.65;;;;;;;;;;5018948;28;20229;-77
2023/07/01 10:23:04;;;;;;;5.25;3.00;;;;;;;;;;5009223;28;20106;-78
2023/07/01 10:25:32;;;;;;;4.97;3.10;;;;;;;;;;5011633;28;20092;-77
2023/07/01 10:28:09;;;;;;;5.15;3.10;;;;;;;;;;5018089;28;20046;-77
2023/07/01 10:31:09;;;;;;;4.25;3.10;;;;;;;;;;5018665;28;20045;-77
2023/07/01 10:33:57;;;;;;;5.13;3.00;;;;;;;;;;5010929;28;20088;-77
2023/07/01 10:36:24;;;;;;;5.22;2.97;;;;;;;;;;5010620;28;20042;-78
2023/07/01 10:38:52;;;;;;;4.25;3.05;;;;;;;;;;5013363;28;20042;-78
2023/07/01 10:41:53;;;;;;;4.90;3.17;;;;;;;;;;5022869;28;20114;-79
2023/07/01 10:44:24;;;;;;;3.97;2.63;;;;;;;;;;4930366;29;20090;-77
2023/07/01 10:47:13;;;;;;;5.05;2.95;;;;;;;;;;5001518;28;20077;-79
2023/07/01 10:50:03;;;;;;;5.20;3.00;;;;;;;;;;5019047;28;20057;-77
2023/07/01 10:52:33;;;;;;;5.22;3.25;;;;;;;;;;5013617;28;20065;-77
2023/07/01 10:55:02;;;;;;;5.60;3.33;;;;;;;;;;5013895;28;20128;-78
2023/07/01 10:57:30;;;;;;;5.28;2.92;;;;;;;;;;5008266;28;20049;-77
2023/07/01 11:00:30;;;;;;;5.25;3.28;;;;;;;;;;5013652;28;20069;-78
2023/07/01 11:02:56;;;;;;;4.63;3.00;;;;;;;;;;5018237;28;20127;-78
2023/07/01 11:05:29;;;;;;;4.93;3.33;;;;;;;;;;5017960;28;20514;-79
2023/07/01 11:08:06;;;;;;;5.70;2.70;;;;;;;;;;5018822;28;20052;-80
2023/07/01 11:10:34;;;;;;;5.70;2.80;;;;;;;;;;5024164;28;20042;-75
2023/07/01 11:13:01;;;;;;;4.57;2.90;;;;;;;;;;5015591;28;20050;-78
2023/07/01 11:15:28;;;;;;;5.50;2.92;;;;;;;;;;5008947;28;20724;-77
2023/07/01 11:17:56;;;;;;;5.22;2.97;;;;;;;;;;5017491;28;20037;-77
2023/07/01 11:20:25;;;;;;;4.22;2.55;;;;;;;;;;5015757;28;20538;-77
2023/07/01 11:22:52;;;;;;;5.85;3.33;;;;;;;;;;5014476;28;20060;-78
2023/07/01 11:25:18;;;;;;;4.50;3.50;;;;;;;;;;5011413;28;20057;-77
2023/07/01 11:27:45;;;;;;;5.05;2.80;;;;;;;;;;5022372;28;20080;-76
2023/07/01 11:30:31;;;;;;;4.43;2.88;;;;;;;;;;5034721;28;20037;-79
2023/07/01 11:33:11;;;;;;;4.22;2.90;;;;;;;;;;5017199;28;20050;-76
2023/07/01 11:35:55;;;;;;;4.75;2.95;;;;;;;;;;5011754;28;20050;-79
2023/07/01 11:38:26;;;;;;;4.20;3.05;;;;;;;;;;5013866;28;20084;-76
2023/07/01 11:40:53;;;;;;;4.93;2.90;;;;;;;;;;5015540;28;20042;-81
2023/07/01 11:43:21;;;;;;;4.00;3.00;;;;;;;;;;5012953;28;20073;-76
2023/07/01 11:45:50;;;;;;;5.57;3.15;;;;;;;;;;5012711;28;20108;-77
2023/07/01 11:48:17;;;;;;;4.05;2.50;;;;;;;;;;5013301;28;20090;-78
2023/07/01 11:50:54;;;;;;;3.67;2.40;;;;;;;;;;5015178;28;20123;-76
2023/07/01 11:53:22;;;;;;;3.90;2.92;;;;;;;;;;5012927;28;20060;-75
2023/07/01 11:55:49;;;;;;;4.28;2.60;;;;;;;;;;5008644;28;20046;-75
2023/07/01 11:58:27;;;;;;;3.92;2.78;;;;;;;;;;5025303;28;20049;-76
2023/07/01 12:00:54;;;;;;;4.35;2.53;;;;;;;;;;5024807;28;20046;-77
2023/07/01 12:03:20;;;;;;;4.68;2.80;;;;;;;;;;5025842;28;20093;-77
2023/07/01 12:05:47;;;;;;;4.10;2.50;;;;;;;;;;5028613;28;20104;-76
2023/07/01 12:08:15;;;;;;;4.03;2.50;;;;;;;;;;5028988;28;20054;-76
2023/07/01 12:10:42;;;;;;;3.75;2.40;;;;;;;;;;5027476;28;20046;-76
2023/07/01 12:13:28;;;;;;;3.78;2.00;;;;;;;;;;5024181;28;20108;-77
2023/07/01 12:15:55;;;;;;;4.53;2.50;;;;;;;;;;5021697;28;20040;-75
2023/07/01 12:18:23;;;;;;;5.05;2.58;;;;;;;;;;5017813;28;20061;-76
2023/07/01 12:20:49;;;;;;;3.22;2.28;;;;;;;;;;5014353;28;20050;-75
2023/07/01 12:23:17;;;;;;;4.43;2.50;;;;;;;;;;5014051;28;20124;-75
2023/07/01 12:25:44;;;;;;;5.28;2.30;;;;;;;;;;5014982;28;20045;-76
2023/07/01 12:28:11;;;;;;;6.35;2.58;;;;;;;;;;5017146;28;20477;-75
2023/07/01 12:30:37;;;;;;;4.10;2.47;;;;;;;;;;5013884;28;20092;-77
2023/07/01 12:33:04;;;;;;;4.68;2.22;;;;;;;;;;5014695;28;20097;-75
2023/07/01 12:35:31;;;;;;;4.07;2.63;;;;;;;;;;5013639;28;20148;-75
2023/07/01 12:37:58;;;;;;;3.70;2.40;;;;;;;;;;5013064;28;20132;-75
2023/07/01 12:40:28;;;;;;;4.75;2.78;;;;;;;;;;5028166;28;20040;-75
2023/07/01 12:43:00;;;;;;;5.18;2.58;;;;;;;;;;5026157;28;20053;-76
2023/07/01 12:45:28;;;;;;;5.80;3.15;;;;;;;;;;5024616;28;20050;-76
2023/07/01 12:47:56;;;;;;;4.13;2.60;;;;;;;;;;5018499;28;20050;-77
2023/07/01 12:50:22;;;;;;;6.28;3.10;;;;;;;;;;5017683;28;20072;-78
2023/07/01 12:52:53;;;;;;;3.88;2.55;;;;;;;;;;5023135;28;20076;-75
2023/07/01 12:55:20;;;;;;;4.55;2.63;;;;;;;;;;5027821;28;20045;-77
2023/07/01 12:57:48;;;;;;;3.55;2.33;;;;;;;;;;5020575;28;20138;-76
2023/07/01 13:00:15;;;;;;;4.50;2.53;;;;;;;;;;5021806;28;20042;-76
2023/07/01 13:02:46;;;;;;;3.70;2.58;;;;;;;;;;5023786;28;20046;-76
2023/07/01 13:05:20;;;;;;;3.60;2.50;;;;;;;;;;5025317;28;20497;-77
2023/07/01 13:07:50;;;;;;;6.45;2.30;;;;;;;;;;5023583;28;20066;-76
2023/07/01 13:10:19;;;;;;;;;;;;;;;;;;5012577;28;20116;-75
2023/07/01 13:12:46;;;;;;;4.50;2.92;;;;;;;;;;5028966;28;19996;-75
2023/07/01 13:15:29;;;;;;;3.55;2.38;;;;;;;;;;5027451;28;20074;-76
2023/07/01 13:17:56;;;;;;;4.38;2.60;;;;;;;;;;5028038;28;20054;-76
2023/07/01 13:20:26;;;;;;;4.05;2.42;;;;;;;;;;5026364;28;20416;-76
2023/07/01 13:22:53;;;;;;;;;;;;;;;;;;5028610;28;20030;-76
2023/07/01 13:25:20;;;;;;;3.20;2.25;;;;;;;;;;5024554;28;20021;-76
2023/07/01 13:27:48;;;;;;;3.70;2.30;;;;;;;;;;5020026;28;20133;-76
2023/07/01 13:30:30;;;;;;;4.40;2.55;;;;;;;;;;5014822;28;20412;-76
2023/07/01 13:32:57;;;;;;;3.63;2.42;;;;;;;;;;5013638;28;20673;-75
2023/07/01 13:35:24;;;;;;;4.50;2.38;;;;;;;;;;5013068;28;20073;-76
2023/07/01 13:38:05;;;;;;;3.80;2.25;;;;;;;;;;5013232;28;20038;-77
2023/07/01 13:40:33;;;;;;;3.53;2.08;;;;;;;;;;5012852;28;20497;-77
2023/07/01 13:43:00;;;;;;;4.60;2.17;;;;;;;;;;5013139;28;20133;-76
2023/07/01 13:45:29;;;;;;;3.80;2.13;;;;;;;;;;5012691;28;20058;-77
2023/07/01 13:47:56;;;;;;;3.65;2.28;;;;;;;;;;5012746;28;20050;-77
2023/07/01 13:50:24;;;;;;;4.03;2.42;;;;;;;;;;5012383;28;20046;-77
2023/07/01 13:52:52;;;;;;;4.55;2.17;;;;;;;;;;5012852;28;20076;-77
2023/07/01 13:55:20;;;;;;;3.55;2.20;;;;;;;;;;5012631;28;20108;-76
2023/07/01 13:57:48;;;;;;;3.60;2.20;;;;;;;;;;5012586;28;20053;-76
2023/07/01 14:00:36;;;;;;;4.10;2.00;;;;;;;;;;5012405;28;20054;-76
2023/07/01 14:03:04;;;;;;;3.75;2.10;;;;;;;;;;5010286;28;20489;-76
2023/07/01 14:05:32;;;;;;;4.15;2.80;;;;;;;;;;4993495;28;20065;-76
2023/07/01 14:08:00;;;;;;;4.72;2.70;;;;;;;;;;4995928;28;20137;-76
2023/07/01 14:10:29;;;;;;;5.13;3.60;;;;;;;;;;5009255;28;20042;-76
2023/07/01 14:12:56;;;;;;;5.72;4.45;;;;;;;;;;5017055;28;20049;-76
2023/07/01 14:15:38;;;;;;;4.15;2.70;;;;;;;;;;5016549;28;20455;-76
2023/07/01 14:18:12;;;;;;;4.00;2.38;;;;;;;;;;5017265;28;20052;-76
2023/07/01 14:20:43;;;;;;;4.95;3.03;;;;;;;;;;5016748;28;20137;-76
2023/07/01 14:23:14;;;;;;;4.20;2.80;;;;;;;;;;5021505;28;20100;-76
2023/07/01 14:25:44;;;;;;;4.10;2.50;;;;;;;;;;5020108;28;20525;-76
2023/07/01 14:28:12;;;;;;;4.43;2.53;;;;;;;;;;5019574;28;20417;-76
2023/07/01 14:31:00;;;;;;;5.97;4.07;;;;;;;;;;5018687;28;20056;-76
2023/07/01 14:33:34;;;;;;;4.90;3.40;;;;;;;;;;5016747;28;20131;-76
2023/07/01 14:36:00;;;;;;;3.65;2.47;;;;;;;;;;5016717;28;20052;-77
2023/07/01 14:38:36;;;;;;;4.03;2.58;;;;;;;;;;5016217;28;20125;-76
2023/07/01 14:41:02;;;;;;;4.00;2.55;;;;;;;;;;5015923;28;20120;-77
2023/07/01 14:43:29;;;;;;;3.92;2.38;;;;;;;;;;5016010;28;20089;-76
2023/07/01 14:45:57;;;;;;;3.63;2.35;;;;;;;;;;5015869;28;20120;-77